Time;durP1;ratioP1;P1;durP2;ratioP2;P2;SDS_P1;SDS_P2;PMS_P1;PMS_P2;Temp;Humidity;BMP_temperature;BMP_pressure;BME280_temperature;BME280_humidity;BME280_pressure;Samples;Min_cycle;Max_cycle;Signal;HPM_P1;HPM_P2
2021/11/24 00:01:58;;;;;;;28.97;17.27;;;7.80;99.90;;;;;;5017075;28;20458;-85
2021/11/24 00:04:27;;;;;;;26.27;16.40;;;7.80;99.90;;;;;;5015817;28;20866;-85
2021/11/24 00:06:53;;;;;;;33.87;19.80;;;7.80;99.90;;;;;;5002289;28;20777;-84
2021/11/24 00:09:21;;;;;;;27.27;16.70;;;7.80;99.90;;;;;;5015912;28;21105;-82
2021/11/24 00:11:48;;;;;;;27.70;17.77;;;7.80;99.90;;;;;;5004494;28;20469;-83
2021/11/24 00:14:14;;;;;;;26.10;16.07;;;7.90;99.90;;;;;;5001086;28;20475;-84
2021/11/24 00:16:43;;;;;;;29.83;17.67;;;8.00;99.90;;;;;;5018138;28;20552;-84
2021/11/24 00:19:09;;;;;;;27.93;17.23;;;7.80;99.90;;;;;;5001230;28;20457;-86
2021/11/24 00:21:36;;;;;;;29.10;16.87;;;7.80;99.90;;;;;;5010437;28;20475;-82
2021/11/24 00:24:04;;;;;;;25.17;16.10;;;7.70;99.90;;;;;;4997257;28;20468;-83
2021/11/24 00:26:31;;;;;;;27.80;16.50;;;7.50;99.90;;;;;;4991743;28;20470;-84
2021/11/24 00:28:58;;;;;;;28.27;15.57;;;7.50;99.90;;;;;;4996103;28;22063;-83
2021/11/24 00:31:27;;;;;;;26.40;15.87;;;7.60;99.90;;;;;;4996016;28;21578;-83
2021/11/24 00:33:56;;;;;;;27.63;16.17;;;7.60;99.90;;;;;;5012293;28;20468;-84
2021/11/24 00:36:22;;;;;;;22.97;14.07;;;7.40;99.90;;;;;;5013649;28;20452;-83
2021/11/24 00:38:49;;;;;;;28.57;17.10;;;7.60;99.90;;;;;;4993647;28;20456;-85
2021/11/24 00:41:18;;;;;;;23.77;15.57;;;7.40;99.90;;;;;;5013724;28;20552;-85
2021/11/24 00:43:45;;;;;;;26.13;15.20;;;7.70;99.90;;;;;;5013484;28;20467;-83
2021/11/24 00:46:12;;;;;;;24.10;14.70;;;7.80;99.90;;;;;;4997160;28;20475;-84
2021/11/24 00:48:38;;;;;;;28.00;16.80;;;7.80;99.90;;;;;;4997538;28;20473;-84
2021/11/24 00:51:05;;;;;;;29.03;16.80;;;7.70;99.90;;;;;;5001105;28;20473;-82
2021/11/24 00:53:32;;;;;;;27.17;15.10;;;7.90;99.90;;;;;;5016026;28;20456;-82
2021/11/24 00:55:59;;;;;;;26.90;16.50;;;7.80;99.90;;;;;;5001292;28;20509;-83
2021/11/24 00:58:26;;;;;;;26.63;16.10;;;7.80;99.90;;;;;;5029353;28;20472;-84
2021/11/24 01:00:52;;;;;;;26.73;15.33;;;7.70;99.90;;;;;;4998479;28;20556;-82
2021/11/24 01:03:19;;;;;;;28.03;16.70;;;7.70;99.90;;;;;;5013520;28;20457;-83
2021/11/24 01:05:46;;;;;;;26.60;17.40;;;7.80;99.90;;;;;;4999642;28;20463;-85
2021/11/24 01:08:14;;;;;;;26.83;16.10;;;7.70;99.90;;;;;;5013434;28;21358;-83
2021/11/24 01:10:42;;;;;;;23.90;14.70;;;7.60;99.90;;;;;;4997036;28;20483;-85
2021/11/24 01:13:11;;;;;;;27.27;16.20;;;7.70;99.90;;;;;;5030596;28;20468;-85
2021/11/24 01:15:39;;;;;;;28.73;17.13;;;7.60;99.90;;;;;;5003002;28;20482;-85
2021/11/24 01:18:05;;;;;;;29.77;16.97;;;7.70;99.90;;;;;;5002805;28;20469;-83
2021/11/24 01:20:32;;;;;;;30.60;17.67;;;7.80;99.90;;;;;;5017873;28;20475;-85
2021/11/24 01:23:01;;;;;;;31.73;17.80;;;7.70;99.90;;;;;;5008600;28;20922;-84
2021/11/24 01:25:29;;;;;;;27.53;16.67;;;7.60;99.90;;;;;;5020153;28;20448;-85
2021/11/24 01:27:57;;;;;;;26.10;16.00;;;7.60;99.90;;;;;;5018457;28;20474;-86
2021/11/24 01:30:25;;;;;;;26.50;16.03;;;7.70;99.90;;;;;;5039638;28;20484;-85
2021/11/24 01:32:51;;;;;;;28.53;16.27;;;7.80;99.90;;;;;;5019305;28;20451;-84
2021/11/24 01:35:18;;;;;;;22.70;14.87;;;7.60;99.90;;;;;;5038000;28;20472;-82
2021/11/24 01:37:45;;;;;;;29.30;16.97;;;7.70;99.90;;;;;;5013537;28;20454;-84
2021/11/24 01:40:12;;;;;;;26.33;16.03;;;7.70;99.90;;;;;;5018434;28;20469;-85
2021/11/24 01:42:42;;;;;;;24.57;16.57;;;7.90;99.90;;;;;;5030041;28;20449;-84
2021/11/24 01:45:11;;;;;;;25.50;15.50;;;7.90;99.90;;;;;;5014578;28;20892;-83
2021/11/24 01:47:38;;;;;;;32.60;18.20;;;7.90;99.90;;;;;;5021602;28;20441;-84
2021/11/24 01:50:08;;;;;;;26.23;15.73;;;7.80;99.90;;;;;;5016629;28;20498;-81
2021/11/24 01:52:36;;;;;;;31.57;17.70;;;7.80;99.90;;;;;;5013718;28;20469;-82
2021/11/24 01:55:17;;;;;;;;;;;;;;;;;;;;;
2021/11/24 01:58:09;;;;;;;26.07;15.90;;;7.70;99.90;;;;;;5029812;28;20461;-84
2021/11/24 02:00:39;;;;;;;27.93;15.00;;;7.70;99.90;;;;;;5163729;22;20512;-82
2021/11/24 02:03:45;;;;;;;28.43;17.00;;;7.80;99.90;;;;;;5003267;28;20482;-85
2021/11/24 02:06:12;;;;;;;28.20;17.20;;;7.80;99.90;;;;;;5002982;28;20459;-85
2021/11/24 02:09:38;;;;;;;28.63;17.00;;;7.70;99.90;;;;;;4997114;28;20568;-82
2021/11/24 02:12:05;;;;;;;29.60;15.40;;;7.60;99.90;;;;;;4978280;28;20455;-84
2021/11/24 02:14:54;;;;;;;32.10;16.63;;;7.70;99.90;;;;;;4980941;28;20488;-85
2021/11/24 02:17:52;;;;;;;30.57;16.67;;;7.70;99.90;;;;;;4980572;28;21458;-85
2021/11/24 02:20:42;;;;;;;27.70;17.30;;;7.60;99.90;;;;;;4975428;28;20479;-84
2021/11/24 02:23:19;;;;;;;28.87;15.50;;;7.60;99.90;;;;;;4971994;28;20452;-84
2021/11/24 02:25:46;;;;;;;28.87;16.10;;;7.50;99.90;;;;;;4980413;28;20526;-83
2021/11/24 02:28:25;;;;;;;29.67;16.67;;;7.40;99.90;;;;;;4981508;28;20513;-83
2021/11/24 02:33:48;;;;;;;29.67;15.97;;;7.50;99.90;;;;;;4960118;28;22376;-85
2021/11/24 02:36:17;;;;;;;29.47;16.20;;;7.60;99.90;;;;;;4943564;28;20480;-85
2021/11/24 02:39:15;;;;;;;28.80;17.27;;;7.60;99.90;;;;;;4945710;28;20464;-82
2021/11/24 02:42:23;;;;;;;26.80;17.37;;;7.50;99.90;;;;;;4928210;28;20463;-85
2021/11/24 02:44:57;;;;;;;26.87;15.67;;;7.40;99.90;;;;;;4944033;28;21533;-84
2021/11/24 02:47:25;;;;;;;27.13;15.37;;;7.60;99.90;;;;;;4945177;28;20464;-83
2021/11/24 02:49:55;;;;;;;29.27;18.07;;;7.60;99.90;;;;;;4926626;28;21179;-83
2021/11/24 02:52:26;;;;;;;27.73;17.00;;;7.70;99.90;;;;;;4945397;28;20513;-84
2021/11/24 02:55:04;;;;;;;32.40;17.27;;;7.70;99.90;;;;;;4923754;28;20551;-85
2021/11/24 02:57:36;;;;;;;29.70;17.07;;;7.50;99.90;;;;;;4941596;28;20465;-85
2021/11/24 03:00:19;;;;;;;29.53;16.80;;;7.90;99.90;;;;;;4942202;28;20501;-83
2021/11/24 03:02:47;;;;;;;29.53;18.03;;;7.90;99.90;;;;;;4947643;28;20487;-85
2021/11/24 03:05:23;;;;;;;33.73;18.60;;;7.90;99.90;;;;;;4946145;28;20576;-82
2021/11/24 03:07:52;;;;;;;30.50;17.10;;;7.90;99.90;;;;;;4941480;28;20469;-83
2021/11/24 03:10:19;;;;;;;29.37;17.07;;;7.90;99.90;;;;;;4921686;28;20496;-85
2021/11/24 03:12:46;;;;;;;30.33;17.43;;;7.90;99.90;;;;;;4937650;28;20463;-86
2021/11/24 03:15:13;;;;;;;29.83;17.77;;;7.80;99.90;;;;;;4928635;28;20471;-85
2021/11/24 03:17:40;;;;;;;32.07;16.73;;;7.50;99.90;;;;;;4936163;28;20455;-86
2021/11/24 03:20:10;;;;;;;30.30;17.87;;;7.50;99.90;;;;;;4960663;28;20464;-85
2021/11/24 03:22:37;;;;;;;35.20;17.60;;;7.80;99.90;;;;;;4947079;28;20457;-85
2021/11/24 03:25:06;;;;;;;29.80;17.90;;;7.70;99.90;;;;;;4960309;28;20495;-83
2021/11/24 03:27:35;;;;;;;29.70;17.90;;;7.90;99.90;;;;;;4931354;28;20459;-84
2021/11/24 03:30:07;;;;;;;32.80;17.70;;;7.90;99.90;;;;;;4940747;28;20482;-82
2021/11/24 03:32:33;;;;;;;26.67;17.30;;;7.60;99.90;;;;;;4917473;28;20484;-85
2021/11/24 03:35:00;;;;;;;28.10;16.63;;;7.40;99.90;;;;;;4918815;28;20485;-82
2021/11/24 03:37:27;;;;;;;29.80;16.17;;;7.30;99.90;;;;;;4918488;28;21542;-83
2021/11/24 03:39:54;;;;;;;30.40;18.50;;;7.40;99.90;;;;;;4936521;28;20471;-83
2021/11/24 03:42:21;;;;;;;32.20;19.63;;;7.60;99.90;;;;;;4933917;28;20857;-82
2021/11/24 03:44:48;;;;;;;26.50;16.57;;;7.90;99.90;;;;;;4916692;28;20476;-82
2021/11/24 03:47:14;;;;;;;30.40;17.40;;;8.00;99.90;;;;;;4919148;28;20462;-83
2021/11/24 03:49:42;;;;;;;31.27;17.00;;;7.90;99.90;;;;;;4922169;28;20485;-83
2021/11/24 03:52:09;;;;;;;29.00;17.90;;;7.70;99.90;;;;;;4915819;28;20458;-84
2021/11/24 03:54:37;;;;;;;26.77;15.83;;;7.70;99.90;;;;;;4922164;28;20469;-82
2021/11/24 03:57:04;;;;;;;31.03;17.80;;;7.60;99.90;;;;;;4939485;28;21034;-83
2021/11/24 03:59:31;;;;;;;31.10;18.20;;;7.70;99.90;;;;;;4917213;28;20961;-83
2021/11/24 04:01:58;;;;;;;28.87;17.70;;;7.90;99.90;;;;;;4917155;28;20450;-82
2021/11/24 04:04:25;;;;;;;29.23;17.73;;;7.90;99.90;;;;;;4920129;28;20479;-84
2021/11/24 04:06:51;;;;;;;40.13;19.30;;;8.00;99.90;;;;;;4915499;28;20706;-83
2021/11/24 04:09:18;;;;;;;30.87;16.80;;;8.00;99.90;;;;;;4917021;28;20520;-83
2021/11/24 04:11:45;;;;;;;29.20;16.93;;;7.90;99.90;;;;;;4935767;28;20465;-82
2021/11/24 04:14:12;;;;;;;27.37;16.10;;;7.60;99.90;;;;;;4918061;28;20473;-81
2021/11/24 04:16:38;;;;;;;32.70;17.83;;;7.70;99.90;;;;;;4922404;28;20507;-82
2021/11/24 04:19:05;;;;;;;30.40;16.40;;;7.80;99.90;;;;;;4914645;28;20459;-83
2021/11/24 04:21:32;;;;;;;34.50;17.77;;;7.60;99.90;;;;;;4932563;28;20504;-81
2021/11/24 04:24:00;;;;;;;29.17;17.77;;;7.60;99.90;;;;;;4935742;28;20450;-83
2021/11/24 04:26:27;;;;;;;26.30;15.60;;;7.60;99.90;;;;;;4932042;28;20455;-85
2021/11/24 04:28:54;;;;;;;33.17;16.40;;;7.90;99.90;;;;;;4946753;28;20448;-83
2021/11/24 04:31:21;;;;;;;31.50;17.13;;;7.90;99.90;;;;;;4920749;28;20475;-83
2021/11/24 04:33:47;;;;;;;32.00;17.23;;;7.90;99.90;;;;;;4915094;28;20457;-83
2021/11/24 04:36:14;;;;;;;34.07;17.37;;;7.80;99.90;;;;;;4917522;28;20491;-84
2021/11/24 04:38:41;;;;;;;29.07;15.60;;;8.00;99.90;;;;;;4937191;28;20448;-85
2021/11/24 04:41:08;;;;;;;31.70;17.87;;;8.10;99.90;;;;;;4911935;28;21000;-85
2021/11/24 04:43:42;;;;;;;29.33;17.47;;;7.90;99.90;;;;;;4925768;28;20465;-83
2021/11/24 04:46:09;;;;;;;27.83;16.47;;;7.80;99.90;;;;;;4913017;28;20832;-85
2021/11/24 04:48:37;;;;;;;28.60;16.50;;;7.90;99.90;;;;;;4934916;28;20467;-87
2021/11/24 04:51:04;;;;;;;27.80;16.70;;;7.80;99.90;;;;;;4933288;28;22210;-85
2021/11/24 04:53:31;;;;;;;28.30;15.60;;;7.60;99.90;;;;;;4915811;28;20471;-85
2021/11/24 04:55:58;;;;;;;26.47;14.87;;;7.80;99.90;;;;;;4937395;28;20566;-84
2021/11/24 04:58:25;;;;;;;32.33;16.23;;;7.90;99.90;;;;;;4915063;28;20908;-82
2021/11/24 05:00:52;;;;;;;26.00;16.10;;;7.90;99.90;;;;;;4907230;28;20569;-85
2021/11/24 05:03:19;;;;;;;26.63;16.27;;;7.80;99.90;;;;;;4935122;28;20460;-84
2021/11/24 05:05:46;;;;;;;30.57;16.30;;;7.70;99.90;;;;;;4917571;28;20469;-84
2021/11/24 05:08:13;;;;;;;29.40;15.90;;;7.60;99.90;;;;;;4915758;28;20473;-85
2021/11/24 05:10:40;;;;;;;28.87;15.63;;;7.70;99.90;;;;;;4918978;28;20471;-86
2021/11/24 05:13:07;;;;;;;30.37;16.40;;;8.00;99.90;;;;;;4921210;28;21002;-85
2021/11/24 05:15:37;;;;;;;29.23;16.20;;;7.90;99.90;;;;;;4941008;28;20488;-86
2021/11/24 05:18:12;;;;;;;30.20;16.00;;;8.00;99.90;;;;;;4924983;28;20560;-84
2021/11/24 05:20:40;;;;;;;23.47;13.93;;;7.90;99.90;;;;;;4960999;28;21806;-85
2021/11/24 05:23:12;;;;;;;26.70;14.70;;;7.90;99.90;;;;;;4944051;28;20462;-84
2021/11/24 05:25:38;;;;;;;28.00;14.93;;;7.90;99.90;;;;;;4959089;28;20475;-84
2021/11/24 05:28:05;;;;;;;28.67;16.40;;;7.70;99.90;;;;;;4942352;28;20474;-84
2021/11/24 05:30:32;;;;;;;27.63;15.80;;;7.50;99.90;;;;;;4938761;28;20491;-83
2021/11/24 05:32:59;;;;;;;26.63;14.90;;;7.50;99.90;;;;;;4920479;28;20503;-85
2021/11/24 05:35:26;;;;;;;25.97;15.43;;;7.70;99.90;;;;;;4921147;28;20886;-86
2021/11/24 05:37:53;;;;;;;23.57;14.83;;;7.70;99.90;;;;;;4921510;28;20449;-84
2021/11/24 05:40:23;;;;;;;30.10;16.80;;;7.90;99.90;;;;;;4924298;28;20476;-84
2021/11/24 05:42:50;;;;;;;31.73;15.83;;;7.90;99.90;;;;;;4941197;28;20472;-84
2021/11/24 05:45:38;;;;;;;26.27;14.90;;;7.80;99.90;;;;;;4942278;28;20483;-84
2021/11/24 05:48:09;;;;;;;29.10;17.97;;;8.00;99.90;;;;;;4939279;28;20466;-84
2021/11/24 05:50:43;;;;;;;28.33;15.70;;;8.10;99.90;;;;;;4933355;28;20606;-84
2021/11/24 05:53:11;;;;;;;25.53;15.10;;;8.10;99.90;;;;;;4940853;28;20463;-85
2021/11/24 05:55:38;;;;;;;27.23;16.70;;;8.00;99.90;;;;;;4942563;28;20484;-85
2021/11/24 05:58:05;;;;;;;31.70;16.80;;;8.10;99.90;;;;;;4941852;28;20454;-82
2021/11/24 06:00:33;;;;;;;28.63;15.50;;;8.00;99.90;;;;;;4939238;28;20492;-85
2021/11/24 06:03:02;;;;;;;28.60;16.70;;;7.70;99.90;;;;;;4941993;28;20507;-84
2021/11/24 06:05:29;;;;;;;29.30;15.93;;;7.80;99.90;;;;;;4920720;28;20458;-83
2021/11/24 06:07:56;;;;;;;27.57;14.60;;;7.80;99.90;;;;;;4933541;28;20470;-82
2021/11/24 06:10:23;;;;;;;28.07;16.40;;;7.90;99.90;;;;;;4928144;28;20506;-81
2021/11/24 06:12:50;;;;;;;27.80;15.50;;;7.80;99.90;;;;;;4930823;28;20464;-84
2021/11/24 06:15:17;;;;;;;27.70;15.97;;;7.70;99.90;;;;;;4919318;28;21873;-84
2021/11/24 06:17:46;;;;;;;29.57;16.40;;;7.80;99.90;;;;;;4916967;28;20466;-84
2021/11/24 06:20:14;;;;;;;28.00;15.10;;;7.70;99.90;;;;;;4932630;28;20490;-84
2021/11/24 06:22:42;;;;;;;23.07;14.00;;;7.70;99.90;;;;;;4920101;28;20462;-82
2021/11/24 06:25:11;;;;;;;25.90;14.17;;;7.80;99.90;;;;;;4935797;28;20448;-86
2021/11/24 06:27:42;;;;;;;31.37;16.53;;;7.80;99.90;;;;;;4915399;28;20464;-84
2021/11/24 06:30:18;;;;;;;26.70;15.93;;;7.80;99.90;;;;;;4920105;28;20495;-84
2021/11/24 06:32:46;;;;;;;27.07;15.47;;;7.90;99.90;;;;;;4936477;28;20462;-82
2021/11/24 06:35:16;;;;;;;31.17;17.07;;;7.90;99.90;;;;;;4936432;28;20969;-83
2021/11/24 06:37:44;;;;;;;26.37;16.00;;;8.10;99.90;;;;;;4924795;28;20471;-84
2021/11/24 06:40:12;;;;;;;31.40;17.00;;;8.00;99.90;;;;;;4949413;28;21844;-84
2021/11/24 06:42:40;;;;;;;29.17;16.50;;;8.00;99.90;;;;;;4954023;28;20440;-86
2021/11/24 06:45:07;;;;;;;27.23;14.97;;;8.00;99.90;;;;;;4939582;28;20475;-86
2021/11/24 06:47:35;;;;;;;29.13;15.00;;;8.00;99.90;;;;;;4917117;28;20479;-86
2021/11/24 06:50:03;;;;;;;31.30;16.03;;;8.00;99.90;;;;;;4937218;28;20483;-86
2021/11/24 06:52:30;;;;;;;28.83;15.50;;;8.00;99.90;;;;;;4937682;28;21867;-85
2021/11/24 06:54:56;;;;;;;31.33;17.27;;;8.10;99.90;;;;;;4930616;28;21487;-85
2021/11/24 06:57:23;;;;;;;25.93;15.17;;;8.00;99.90;;;;;;4934056;28;20499;-84
2021/11/24 06:59:50;;;;;;;25.47;14.53;;;7.80;99.90;;;;;;4915322;28;20555;-85
2021/11/24 07:02:17;;;;;;;28.60;13.60;;;7.90;99.90;;;;;;4915675;28;20459;-84
2021/11/24 07:04:45;;;;;;;28.83;14.53;;;7.90;99.90;;;;;;4916876;28;20467;-82
2021/11/24 07:07:11;;;;;;;27.70;15.47;;;7.90;99.90;;;;;;4933589;28;20470;-84
2021/11/24 07:09:43;;;;;;;21.40;13.60;;;7.80;99.90;;;;;;4931994;28;20492;-83
2021/11/24 07:12:10;;;;;;;25.33;13.70;;;7.60;99.90;;;;;;4935165;28;20542;-85
2021/11/24 07:14:37;;;;;;;25.13;12.83;;;7.60;99.90;;;;;;4918400;28;22055;-84
2021/11/24 07:17:04;;;;;;;23.53;14.27;;;7.50;99.90;;;;;;4914099;28;21408;-85
2021/11/24 07:19:30;;;;;;;22.53;13.47;;;7.40;99.90;;;;;;4937778;28;21038;-85
2021/11/24 07:21:57;;;;;;;22.40;14.47;;;7.50;99.90;;;;;;4915071;28;21017;-83
2021/11/24 07:24:24;;;;;;;20.33;13.20;;;7.80;99.90;;;;;;4918164;28;20468;-85
2021/11/24 07:26:51;;;;;;;22.30;14.00;;;7.90;99.90;;;;;;4915857;28;20455;-83
2021/11/24 07:29:20;;;;;;;21.93;13.93;;;8.10;99.90;;;;;;4914700;28;20500;-84
2021/11/24 07:31:47;;;;;;;25.37;14.10;;;8.10;99.90;;;;;;4929806;28;20479;-84
2021/11/24 07:34:15;;;;;;;22.40;14.47;;;7.90;99.90;;;;;;4916302;28;20467;-84
2021/11/24 07:36:42;;;;;;;22.87;13.87;;;8.00;99.90;;;;;;4916638;28;20486;-84
2021/11/24 07:39:09;;;;;;;27.73;15.40;;;8.10;99.90;;;;;;4935143;28;20471;-84
2021/11/24 07:41:37;;;;;;;24.03;15.13;;;8.10;99.90;;;;;;4922509;28;20499;-83
2021/11/24 07:44:05;;;;;;;23.87;12.93;;;8.10;99.90;;;;;;4932878;28;20460;-85
2021/11/24 07:46:32;;;;;;;24.97;14.70;;;8.20;99.90;;;;;;4913434;28;20461;-83
2021/11/24 07:48:59;;;;;;;25.93;13.97;;;8.20;99.90;;;;;;4920075;28;20487;-86
2021/11/24 07:51:26;;;;;;;22.60;13.70;;;8.20;99.90;;;;;;4917507;28;20492;-86
2021/11/24 07:53:54;;;;;;;32.20;17.70;;;8.20;99.90;;;;;;4911244;28;20498;-86
2021/11/24 07:56:23;;;;;;;21.17;13.17;;;8.00;99.90;;;;;;5176646;23;20508;-84
2021/11/24 07:58:50;;;;;;;23.13;13.17;;;7.90;99.90;;;;;;4974966;28;20457;-83
2021/11/24 08:01:27;;;;;;;25.67;14.13;;;8.10;99.90;;;;;;4976533;28;20484;-83
2021/11/24 08:04:07;;;;;;;22.77;13.43;;;8.10;99.90;;;;;;4991282;28;20454;-84
2021/11/24 08:06:36;;;;;;;26.70;13.80;;;8.10;99.90;;;;;;4973262;28;20874;-85
2021/11/24 08:09:06;;;;;;;20.53;12.33;;;8.10;99.90;;;;;;4991826;28;20467;-85
2021/11/24 08:11:41;;;;;;;22.47;14.10;;;8.10;99.90;;;;;;4978341;28;22066;-84
2021/11/24 08:14:08;;;;;;;20.43;12.93;;;8.00;99.90;;;;;;4981273;28;20448;-84
2021/11/24 08:16:35;;;;;;;25.40;14.53;;;8.00;99.90;;;;;;4971224;28;20491;-85
2021/11/24 08:19:02;;;;;;;22.00;12.93;;;8.10;99.90;;;;;;4990594;28;20526;-84
2021/11/24 08:21:28;;;;;;;24.70;13.23;;;8.10;99.90;;;;;;4979106;28;20823;-84
2021/11/24 08:23:55;;;;;;;19.67;12.63;;;8.00;99.90;;;;;;4976032;28;20454;-84
2021/11/24 08:26:24;;;;;;;23.33;13.87;;;7.90;99.90;;;;;;4992581;28;21841;-82
2021/11/24 08:28:54;;;;;;;22.10;12.70;;;8.00;99.90;;;;;;4980494;28;20453;-84
2021/11/24 08:31:21;;;;;;;21.90;12.30;;;8.10;99.90;;;;;;4997306;28;20512;-85
2021/11/24 08:33:49;;;;;;;20.97;13.60;;;8.20;99.90;;;;;;4994911;28;20465;-83
2021/11/24 08:36:16;;;;;;;24.40;14.33;;;8.20;99.90;;;;;;4975050;28;20490;-84
2021/11/24 08:38:46;;;;;;;21.37;13.93;;;8.10;99.90;;;;;;4994592;28;20468;-85
2021/11/24 08:41:29;;;;;;;25.57;14.17;;;8.30;99.90;;;;;;4980289;28;20475;-84
2021/11/24 08:43:59;;;;;;;20.93;13.37;;;8.20;99.90;;;;;;4990234;28;21949;-84
2021/11/24 08:46:39;;;;;;;21.43;13.57;;;8.30;99.90;;;;;;4980373;28;22150;-83
2021/11/24 08:49:08;;;;;;;19.63;13.57;;;8.10;99.90;;;;;;4983340;28;20448;-83
2021/11/24 08:51:40;;;;;;;22.70;13.17;;;8.10;99.90;;;;;;4996398;28;20510;-83
2021/11/24 08:54:10;;;;;;;23.33;14.50;;;8.30;99.90;;;;;;4982045;28;20501;-82
2021/11/24 08:56:39;;;;;;;20.03;13.43;;;8.20;99.90;;;;;;4991302;28;20481;-84
2021/11/24 08:59:09;;;;;;;24.50;14.90;;;8.30;99.90;;;;;;5009703;28;20480;-84
2021/11/24 09:01:47;;;;;;;23.67;12.70;;;8.30;99.90;;;;;;5001715;28;20534;-84
2021/11/24 09:04:22;;;;;;;21.40;13.00;;;8.20;99.90;;;;;;4979342;28;20522;-84
2021/11/24 09:06:49;;;;;;;25.93;13.53;;;8.40;99.90;;;;;;4985997;28;20493;-86
2021/11/24 09:09:19;;;;;;;20.97;13.20;;;8.40;99.90;;;;;;4977925;28;20988;-85
2021/11/24 09:11:45;;;;;;;23.30;13.60;;;8.50;99.90;;;;;;4998191;28;20476;-86
2021/11/24 09:14:12;;;;;;;26.13;14.43;;;8.40;99.90;;;;;;4981156;28;20467;-85
2021/11/24 09:16:53;;;;;;;25.00;13.43;;;8.20;99.90;;;;;;4989351;28;20485;-85
2021/11/24 09:19:20;;;;;;;18.37;11.57;;;8.10;99.90;;;;;;4984947;28;22224;-84
2021/11/24 09:21:55;;;;;;;23.50;13.30;;;8.40;99.90;;;;;;4979783;28;20452;-84
2021/11/24 09:24:33;;;;;;;25.50;13.50;;;8.60;99.90;;;;;;4980831;28;20543;-85
2021/11/24 09:27:16;;;;;;;21.13;13.50;;;8.40;99.90;;;;;;4978043;28;20461;-83
2021/11/24 09:29:47;;;;;;;23.07;14.10;;;8.40;99.90;;;;;;4997429;28;20855;-85
2021/11/24 09:32:17;;;;;;;25.20;14.87;;;8.40;99.90;;;;;;4977768;28;20458;-85
2021/11/24 09:34:51;;;;;;;24.03;14.30;;;8.40;99.90;;;;;;4978017;28;20516;-84
2021/11/24 09:37:19;;;;;;;23.80;15.83;;;8.40;99.90;;;;;;4997145;28;20479;-84
2021/11/24 09:39:46;;;;;;;21.30;13.00;;;8.50;99.90;;;;;;4996904;28;20566;-83
2021/11/24 09:42:19;;;;;;;23.30;15.23;;;8.50;99.90;;;;;;4984079;28;20546;-83
2021/11/24 09:44:48;;;;;;;20.23;14.70;;;8.50;99.90;;;;;;4992134;28;20445;-86
2021/11/24 09:47:54;;;;;;;23.90;14.90;;;8.70;99.90;;;;;;5023590;28;20482;-84
2021/11/24 09:50:25;;;;;;;21.63;14.63;;;8.60;99.90;;;;;;5023566;28;20472;-86
2021/11/24 09:52:58;;;;;;;22.13;14.00;;;8.70;99.90;;;;;;5027551;28;20544;-85
2021/11/24 09:55:35;;;;;;;17.47;11.77;;;8.80;99.90;;;;;;5023329;28;20550;-84
2021/11/24 09:58:10;;;;;;;21.67;15.33;;;8.80;99.90;;;;;;4987781;28;20489;-84
2021/11/24 10:00:39;;;;;;;19.37;13.13;;;8.70;99.90;;;;;;4990195;28;20479;-84
2021/11/24 10:03:10;;;;;;;21.50;14.40;;;8.60;99.90;;;;;;4988372;28;20467;-84
2021/11/24 10:05:37;;;;;;;39.83;30.30;;;8.40;99.90;;;;;;5006485;28;20454;-84
2021/11/24 10:08:07;;;;;;;19.23;14.03;;;8.50;99.90;;;;;;4984231;28;20458;-84
2021/11/24 10:10:34;;;;;;;17.87;12.17;;;8.60;99.90;;;;;;4991630;28;20578;-85
2021/11/24 10:13:01;;;;;;;20.47;13.43;;;8.80;99.90;;;;;;4991691;28;20477;-86
2021/11/24 10:15:38;;;;;;;20.10;13.50;;;8.70;99.90;;;;;;5015767;28;20456;-84
2021/11/24 13:06:38;;;;;;;;;;;;;;;;;;;;;
2021/11/24 14:59:35;;;;;;;1.97;1.37;;;9.60;91.50;;;;;;4777542;29;21508;-87
2021/11/24 15:24:17;;;;;;;2.33;2.03;;;9.30;92.20;;;;;;5026816;23;20876;-85
2021/11/24 15:26:58;;;;;;;1.53;1.17;;;9.50;91.80;;;;;;4905547;28;20480;-84
2021/11/24 15:29:31;;;;;;;2.40;1.83;;;9.50;91.40;;;;;;4910685;28;21366;-84
2021/11/24 15:32:10;;;;;;;3.83;2.00;;;9.40;91.70;;;;;;4909434;28;21035;-84
2021/11/24 15:34:39;;;;;;;2.00;1.80;;;9.40;92.10;;;;;;4923462;28;20457;-84
2021/11/24 15:37:06;;;;;;;2.27;1.87;;;9.20;92.20;;;;;;4925505;28;20508;-83
2021/11/24 15:39:41;;;;;;;3.03;2.10;;;9.30;92.40;;;;;;4909999;28;20474;-83
2021/11/24 15:42:12;;;;;;;3.33;2.13;;;9.20;92.40;;;;;;4926791;28;21296;-85
2021/11/24 15:44:41;;;;;;;3.10;1.90;;;9.10;92.80;;;;;;4930016;28;20538;-84
2021/11/24 15:51:00;;;;;;;2.40;2.00;;;9.30;92.70;;;;;;4921999;28;20535;-83
2021/11/24 15:53:36;;;;;;;2.50;2.20;;;9.00;92.70;;;;;;4915213;28;20451;-83
2021/11/24 15:56:08;;;;;;;4.13;2.10;;;9.00;93.40;;;;;;4924656;28;20476;-86
2021/11/24 15:59:10;;;;;;;3.80;2.20;;;9.00;93.40;;;;;;4907387;28;21073;-81
2021/11/24 16:01:38;;;;;;;3.37;2.50;;;9.10;93.30;;;;;;4910204;28;20485;-82
2021/11/24 16:04:06;;;;;;;2.30;2.10;;;9.10;93.30;;;;;;4904381;28;20806;-84
2021/11/24 16:06:50;;;;;;;4.93;2.80;;;8.90;93.60;;;;;;4910805;28;20457;-82
2021/11/24 16:09:20;;;;;;;2.50;2.30;;;8.70;94.10;;;;;;4913148;28;20468;-83
2021/11/24 16:12:00;;;;;;;3.37;2.40;;;8.70;94.40;;;;;;4939570;28;20452;-86
2021/11/24 16:14:29;;;;;;;2.90;2.60;;;8.70;94.40;;;;;;4928688;28;21990;-85
2021/11/24 16:17:06;;;;;;;2.30;2.10;;;8.50;94.70;;;;;;4945823;28;20468;-82
2021/11/24 16:19:35;;;;;;;2.63;2.40;;;8.50;95.00;;;;;;4852162;28;20477;-84
2021/11/24 16:22:13;;;;;;;3.10;2.80;;;8.70;94.60;;;;;;4909940;28;21890;-83
2021/11/24 16:24:45;;;;;;;4.70;2.90;;;8.70;94.80;;;;;;4902950;28;20946;-84
2021/11/24 16:27:34;;;;;;;2.40;2.20;;;8.40;94.60;;;;;;4917061;28;20467;-83
2021/11/24 16:30:33;;;;;;;4.03;2.73;;;8.30;95.20;;;;;;4904325;28;20555;-82
2021/11/24 16:33:33;;;;;;;4.73;2.60;;;8.10;95.50;;;;;;4876004;28;20449;-83
2021/11/24 16:36:22;;;;;;;4.30;3.00;;;8.00;95.80;;;;;;4907671;28;20550;-83
2021/11/24 16:39:20;;;;;;;2.60;2.10;;;8.10;95.90;;;;;;4904095;28;20912;-80
2021/11/24 16:42:12;;;;;;;3.33;3.03;;;8.00;95.90;;;;;;4920159;28;20456;-82
2021/11/24 16:48:04;;;;;;;3.37;2.70;;;8.10;95.90;;;;;;4915762;28;20924;-83
2021/11/24 16:50:49;;;;;;;2.90;2.23;;;8.00;95.60;;;;;;4907230;28;20843;-85
2021/11/24 16:53:45;;;;;;;3.80;3.00;;;8.10;95.50;;;;;;4905055;28;20555;-83
2021/11/24 16:56:12;;;;;;;2.70;2.40;;;8.10;95.30;;;;;;4921756;28;20971;-83
2021/11/24 16:58:50;;;;;;;4.53;3.17;;;8.00;95.50;;;;;;4925383;28;20488;-83
2021/11/24 17:01:17;;;;;;;2.33;1.93;;;8.00;95.60;;;;;;4900770;28;20512;-86
2021/11/24 17:03:45;;;;;;;2.90;2.50;;;7.90;95.90;;;;;;4911513;28;20476;-85
2021/11/24 17:06:30;;;;;;;2.90;2.23;;;8.00;96.00;;;;;;4927927;28;20616;-83
2021/11/24 17:08:59;;;;;;;3.50;3.00;;;8.10;95.80;;;;;;4925219;28;20471;-82
2021/11/24 17:11:30;;;;;;;2.80;2.23;;;8.00;95.80;;;;;;4913521;28;20835;-82
2021/11/24 17:14:06;;;;;;;2.70;2.30;;;8.10;96.20;;;;;;4903978;28;20472;-84
2021/11/24 17:17:26;;;;;;;2.73;2.50;;;8.20;95.90;;;;;;4941678;28;20448;-84
2021/11/24 17:20:04;;;;;;;3.07;2.70;;;8.20;95.90;;;;;;4926523;28;20484;-84
2021/11/24 17:22:38;;;;;;;3.97;3.33;;;8.00;95.90;;;;;;4925283;28;20528;-82
2021/11/24 17:25:07;;;;;;;4.17;3.13;;;8.10;96.10;;;;;;4913923;28;21079;-83
2021/11/24 17:27:53;;;;;;;3.43;2.90;;;8.00;96.20;;;;;;4923622;28;20523;-83
2021/11/24 17:30:43;;;;;;;3.50;3.20;;;8.10;96.40;;;;;;4905306;28;20512;-83
2021/11/24 17:33:30;;;;;;;3.20;3.00;;;8.10;96.30;;;;;;4924743;28;20522;-83
2021/11/24 17:36:23;;;;;;;3.37;3.07;;;8.00;96.60;;;;;;4912133;28;20437;-83
2021/11/24 17:38:53;;;;;;;3.30;3.00;;;7.80;96.80;;;;;;4906219;28;20494;-82
2021/11/24 17:41:30;;;;;;;4.13;3.27;;;7.70;97.20;;;;;;4911980;28;20490;-83
2021/11/24 17:44:23;;;;;;;4.73;3.60;;;7.60;97.50;;;;;;4905639;28;20456;-82
2021/11/24 17:47:06;;;;;;;3.10;2.77;;;7.60;97.70;;;;;;4901881;28;20539;-84
2021/11/24 17:49:39;;;;;;;4.20;3.80;;;8.00;97.20;;;;;;4907732;28;20467;-85
2021/11/24 17:52:07;;;;;;;4.50;3.70;;;8.10;96.80;;;;;;4933437;28;20464;-80
2021/11/24 17:54:40;;;;;;;3.37;3.00;;;8.10;96.70;;;;;;4942148;28;20493;-85
2021/11/24 17:57:08;;;;;;;4.90;3.43;;;8.00;96.80;;;;;;4916360;28;20529;-84
2021/11/24 17:59:38;;;;;;;3.90;3.50;;;7.90;97.10;;;;;;4930480;28;20554;-84
2021/11/24 18:02:08;;;;;;;7.10;4.03;;;7.90;97.20;;;;;;4928437;28;20969;-84
2021/11/24 18:04:37;;;;;;;5.57;3.60;;;7.80;97.30;;;;;;4890332;28;20912;-84
2021/11/24 18:10:51;;;;;;;5.07;4.27;;;8.00;97.60;;;;;;4956235;23;20510;-82
2021/11/24 18:13:18;;;;;;;5.60;4.60;;;8.00;97.20;;;;;;4906952;28;21034;-82
2021/11/24 18:15:49;;;;;;;4.10;3.50;;;7.80;97.30;;;;;;4870483;28;20464;-81
2021/11/24 18:18:17;;;;;;;7.13;3.60;;;7.90;97.00;;;;;;4938177;28;20495;-83
2021/11/24 18:20:48;;;;;;;4.40;3.60;;;7.90;97.00;;;;;;4938179;28;20487;-84